sensor_id;sensor_type;location;lat;lon;timestamp;pressure;altitude;pressure_sealevel;temperature;humidity
78073;BME280;67281;48.770;11.440;2023-05-20T00:00:49;97323.28;;;19.98;45.18
78073;BME280;67281;48.770;11.440;2023-05-20T00:03:16;97324.13;;;19.99;45.15
78073;BME280;67281;48.770;11.440;2023-05-20T00:05:43;97321.47;;;19.99;45.20
78073;BME280;67281;48.770;11.440;2023-05-20T00:08:10;97310.97;;;19.97;44.78
78073;BME280;67281;48.770;11.440;2023-05-20T00:10:38;97318.13;;;19.97;44.67
78073;BME280;67281;48.770;11.440;2023-05-20T00:13:05;97313.66;;;19.97;45.14
78073;BME280;67281;48.770;11.440;2023-05-20T00:15:35;97310.31;;;19.95;45.19
78073;BME280;67281;48.770;11.440;2023-05-20T00:18:02;97310.31;;;19.95;44.86
78073;BME280;67281;48.770;11.440;2023-05-20T00:20:30;97301.50;;;19.95;44.62
78073;BME280;67281;48.770;11.440;2023-05-20T00:22:56;97303.66;;;19.91;44.68
78073;BME280;67281;48.770;11.440;2023-05-20T00:25:23;97297.34;;;19.92;45.24
78073;BME280;67281;48.770;11.440;2023-05-20T00:27:50;97307.16;;;19.92;44.89
78073;BME280;67281;48.770;11.440;2023-05-20T00:30:17;97306.31;;;19.91;45.03
78073;BME280;67281;48.770;11.440;2023-05-20T00:32:44;97300.84;;;19.93;45.34
78073;BME280;67281;48.770;11.440;2023-05-20T00:35:11;97303.81;;;19.90;45.20
78073;BME280;67281;48.770;11.440;2023-05-20T00:37:39;97301.31;;;19.88;44.69
78073;BME280;67281;48.770;11.440;2023-05-20T00:40:06;97289.84;;;19.88;45.33
78073;BME280;67281;48.770;11.440;2023-05-20T00:42:33;97301.16;;;19.90;45.30
78073;BME280;67281;48.770;11.440;2023-05-20T00:45:00;97291.69;;;19.87;44.98
78073;BME280;67281;48.770;11.440;2023-05-20T00:47:29;97280.06;;;19.88;45.16
78073;BME280;67281;48.770;11.440;2023-05-20T00:49:58;97288.19;;;19.87;45.04
78073;BME280;67281;48.770;11.440;2023-05-20T00:52:28;97285.69;;;19.85;44.68
78073;BME280;67281;48.770;11.440;2023-05-20T00:54:57;97290.19;;;19.85;45.44
78073;BME280;67281;48.770;11.440;2023-05-20T00:57:25;97290.19;;;19.85;45.01
78073;BME280;67281;48.770;11.440;2023-05-20T00:59:52;97282.38;;;19.83;44.82
78073;BME280;67281;48.770;11.440;2023-05-20T01:02:19;97289.69;;;19.81;45.13
78073;BME280;67281;48.770;11.440;2023-05-20T01:04:47;97286.84;;;19.83;44.75
78073;BME280;67281;48.770;11.440;2023-05-20T01:07:16;97281.53;;;19.83;45.41
78073;BME280;67281;48.770;11.440;2023-05-20T01:09:44;97279.03;;;19.81;45.11
78073;BME280;67281;48.770;11.440;2023-05-20T01:12:21;97280.22;;;19.79;45.08
78073;BME280;67281;48.770;11.440;2023-05-20T01:14:53;97281.88;;;19.80;45.21
78073;BME280;67281;48.770;11.440;2023-05-20T01:17:30;97277.53;;;19.79;45.03
78073;BME280;67281;48.770;11.440;2023-05-20T01:19:59;97274.88;;;19.79;45.33
78073;BME280;67281;48.770;11.440;2023-05-20T01:22:27;97271.41;;;19.78;45.08
78073;BME280;67281;48.770;11.440;2023-05-20T01:24:55;97276.88;;;19.77;45.37
78073;BME280;67281;48.770;11.440;2023-05-20T01:27:22;97276.03;;;19.76;45.32
78073;BME280;67281;48.770;11.440;2023-05-20T01:29:50;97275.22;;;19.76;44.79
78073;BME280;67281;48.770;11.440;2023-05-20T01:32:21;97270.91;;;19.75;45.37
78073;BME280;67281;48.770;11.440;2023-05-20T01:34:49;97271.72;;;19.75;45.08
78073;BME280;67281;48.770;11.440;2023-05-20T01:37:21;97265.75;;;19.73;44.90
78073;BME280;67281;48.770;11.440;2023-05-20T01:39:49;97264.91;;;19.73;45.45
78073;BME280;67281;48.770;11.440;2023-05-20T01:42:17;97269.41;;;19.72;45.08
78073;BME280;67281;48.770;11.440;2023-05-20T01:44:45;97262.41;;;19.71;44.70
78073;BME280;67281;48.770;11.440;2023-05-20T01:47:12;97266.91;;;19.71;44.79
78073;BME280;67281;48.770;11.440;2023-05-20T01:49:39;97269.41;;;19.72;45.03
78073;BME280;67281;48.770;11.440;2023-05-20T01:52:05;97260.75;;;19.70;45.38
78073;BME280;67281;48.770;11.440;2023-05-20T01:54:33;97257.25;;;19.69;45.34
78073;BME280;67281;48.770;11.440;2023-05-20T01:56:59;97257.25;;;19.69;44.94
78073;BME280;67281;48.770;11.440;2023-05-20T01:59:27;97250.28;;;19.68;45.07
78073;BME280;67281;48.770;11.440;2023-05-20T02:01:54;97249.44;;;19.68;45.55
78073;BME280;67281;48.770;11.440;2023-05-20T02:04:21;97256.59;;;19.67;45.07
78073;BME280;67281;48.770;11.440;2023-05-20T02:06:48;97256.59;;;19.67;45.24
78073;BME280;67281;48.770;11.440;2023-05-20T02:09:17;97257.75;;;19.65;44.80
78073;BME280;67281;48.770;11.440;2023-05-20T02:11:44;97257.75;;;19.65;44.92
78073;BME280;67281;48.770;11.440;2023-05-20T02:14:11;97251.59;;;19.64;45.14
78073;BME280;67281;48.770;11.440;2023-05-20T02:16:38;97256.09;;;19.64;45.73
78073;BME280;67281;48.770;11.440;2023-05-20T02:19:05;97244.63;;;19.63;45.09
78073;BME280;67281;48.770;11.440;2023-05-20T02:21:32;97252.75;;;19.62;44.90
78073;BME280;67281;48.770;11.440;2023-05-20T02:24:00;97257.25;;;19.61;45.46
78073;BME280;67281;48.770;11.440;2023-05-20T02:26:27;97255.56;;;19.60;45.45
78073;BME280;67281;48.770;11.440;2023-05-20T02:28:54;97245.78;;;19.61;44.57
78073;BME280;67281;48.770;11.440;2023-05-20T02:31:21;97244.13;;;19.60;45.06
78073;BME280;67281;48.770;11.440;2023-05-20T02:33:48;97238.97;;;19.58;45.22
78073;BME280;67281;48.770;11.440;2023-05-20T02:36:15;97244.28;;;19.58;45.03
78073;BME280;67281;48.770;11.440;2023-05-20T02:38:43;97229.31;;;19.57;45.50
78073;BME280;67281;48.770;11.440;2023-05-20T02:41:10;97233.81;;;19.57;45.33
78073;BME280;67281;48.770;11.440;2023-05-20T02:43:37;97239.13;;;19.57;44.94
78073;BME280;67281;48.770;11.440;2023-05-20T02:46:04;97232.97;;;19.56;45.13
78073;BME280;67281;48.770;11.440;2023-05-20T02:48:31;97238.47;;;19.55;44.87
78073;BME280;67281;48.770;11.440;2023-05-20T02:50:58;97241.13;;;19.55;44.88
78073;BME280;67281;48.770;11.440;2023-05-20T02:53:25;97237.78;;;19.53;45.47
78073;BME280;67281;48.770;11.440;2023-05-20T02:55:52;97246.59;;;19.53;45.08
78073;BME280;67281;48.770;11.440;2023-05-20T02:58:20;97242.28;;;19.52;45.24
78073;BME280;67281;48.770;11.440;2023-05-20T03:00:52;97250.25;;;19.52;45.22
78073;BME280;67281;48.770;11.440;2023-05-20T03:03:19;97246.75;;;19.52;45.18
78073;BME280;67281;48.770;11.440;2023-05-20T03:05:46;97245.06;;;19.51;45.23
78073;BME280;67281;48.770;11.440;2023-05-20T03:08:12;97244.22;;;19.50;45.72
78073;BME280;67281;48.770;11.440;2023-05-20T03:10:40;97234.44;;;19.51;45.00
78073;BME280;67281;48.770;11.440;2023-05-20T03:13:07;97245.22;;;19.49;45.23
78073;BME280;67281;48.770;11.440;2023-05-20T03:15:39;97243.41;;;19.50;45.22
78073;BME280;67281;48.770;11.440;2023-05-20T03:18:06;97253.34;;;19.48;45.30
78073;BME280;67281;48.770;11.440;2023-05-20T03:20:34;97241.91;;;19.47;45.62
78073;BME280;67281;48.770;11.440;2023-05-20T03:23:08;97246.22;;;19.48;45.05
78073;BME280;67281;48.770;11.440;2023-05-20T03:25:35;97251.69;;;19.47;44.92
78073;BME280;67281;48.770;11.440;2023-05-20T03:28:02;97241.22;;;19.45;45.03
78073;BME280;67281;48.770;11.440;2023-05-20T03:30:29;97245.53;;;19.46;45.51
78073;BME280;67281;48.770;11.440;2023-05-20T03:32:57;97238.56;;;19.45;44.91
78073;BME280;67281;48.770;11.440;2023-05-20T03:35:24;97245.72;;;19.45;45.23
78073;BME280;67281;48.770;11.440;2023-05-20T03:37:51;97250.03;;;19.46;44.87
78073;BME280;67281;48.770;11.440;2023-05-20T03:40:19;97251.84;;;19.45;45.48
78073;BME280;67281;48.770;11.440;2023-05-20T03:42:46;97258.16;;;19.44;45.23
78073;BME280;67281;48.770;11.440;2023-05-20T03:45:13;97251.84;;;19.45;45.27
78073;BME280;67281;48.770;11.440;2023-05-20T03:47:40;97251.19;;;19.43;45.19
78073;BME280;67281;48.770;11.440;2023-05-20T03:50:07;97250.19;;;19.44;44.92
78073;BME280;67281;48.770;11.440;2023-05-20T03:52:35;97250.53;;;19.41;44.91
78073;BME280;67281;48.770;11.440;2023-05-20T03:55:02;97252.19;;;19.42;45.51
78073;BME280;67281;48.770;11.440;2023-05-20T03:57:30;97254.84;;;19.42;45.28
78073;BME280;67281;48.770;11.440;2023-05-20T03:59:58;97250.19;;;19.44;45.23
78073;BME280;67281;48.770;11.440;2023-05-20T04:02:28;97248.69;;;19.42;44.89
78073;BME280;67281;48.770;11.440;2023-05-20T04:04:59;97246.03;;;19.42;44.97
78073;BME280;67281;48.770;11.440;2023-05-20T04:07:38;97252.19;;;19.42;44.79
78073;BME280;67281;48.770;11.440;2023-05-20T04:10:06;97250.34;;;19.43;44.75
78073;BME280;67281;48.770;11.440;2023-05-20T04:12:33;97262.81;;;19.42;45.23
78073;BME280;67281;48.770;11.440;2023-05-20T04:15:02;97259.16;;;19.43;45.20
78073;BME280;67281;48.770;11.440;2023-05-20T04:17:32;97260.16;;;19.42;44.77
78073;BME280;67281;48.770;11.440;2023-05-20T04:20:05;97246.88;;;19.42;45.19
78073;BME280;67281;48.770;11.440;2023-05-20T04:22:33;97256.50;;;19.43;45.07
78073;BME280;67281;48.770;11.440;2023-05-20T04:25:00;97250.19;;;19.44;45.52
78073;BME280;67281;48.770;11.440;2023-05-20T04:27:35;97251.84;;;19.45;44.86
78073;BME280;67281;48.770;11.440;2023-05-20T04:30:07;97253.53;;;19.46;45.07
78073;BME280;67281;48.770;11.440;2023-05-20T04:32:35;97262.31;;;19.47;45.44
78073;BME280;67281;48.770;11.440;2023-05-20T04:35:02;97261.50;;;19.46;45.38
78073;BME280;67281;48.770;11.440;2023-05-20T04:37:33;97255.19;;;19.47;45.38
78073;BME280;67281;48.770;11.440;2023-05-20T04:40:01;97256.84;;;19.48;45.26
78073;BME280;67281;48.770;11.440;2023-05-20T04:42:38;97248.88;;;19.48;45.34
78073;BME280;67281;48.770;11.440;2023-05-20T04:45:11;97242.88;;;19.46;44.78
78073;BME280;67281;48.770;11.440;2023-05-20T04:47:45;97249.03;;;19.47;44.68
78073;BME280;67281;48.770;11.440;2023-05-20T04:50:16;97248.22;;;19.46;45.04
78073;BME280;67281;48.770;11.440;2023-05-20T04:52:42;97242.72;;;19.48;44.76
78073;BME280;67281;48.770;11.440;2023-05-20T04:55:12;97248.38;;;19.45;44.66
78073;BME280;67281;48.770;11.440;2023-05-20T04:57:39;97251.03;;;19.45;44.76
78073;BME280;67281;48.770;11.440;2023-05-20T05:00:09;97252.84;;;19.44;45.53
78073;BME280;67281;48.770;11.440;2023-05-20T05:02:37;97250.19;;;19.44;45.38
78073;BME280;67281;48.770;11.440;2023-05-20T05:05:04;97253.00;;;19.43;45.25
78073;BME280;67281;48.770;11.440;2023-05-20T05:07:32;97244.88;;;19.44;44.72
78073;BME280;67281;48.770;11.440;2023-05-20T05:10:04;97247.53;;;19.44;45.26
78073;BME280;67281;48.770;11.440;2023-05-20T05:12:32;97247.38;;;19.46;44.64
78073;BME280;67281;48.770;11.440;2023-05-20T05:14:59;97243.72;;;19.47;44.76
78073;BME280;67281;48.770;11.440;2023-05-20T05:17:27;97240.06;;;19.48;45.01
78073;BME280;67281;48.770;11.440;2023-05-20T05:19:56;97247.06;;;19.49;45.01
78073;BME280;67281;48.770;11.440;2023-05-20T05:22:23;97238.91;;;19.50;45.00
78073;BME280;67281;48.770;11.440;2023-05-20T05:24:50;97237.25;;;19.49;45.21
78073;BME280;67281;48.770;11.440;2023-05-20T05:27:26;97242.41;;;19.51;44.55
78073;BME280;67281;48.770;11.440;2023-05-20T05:29:56;97230.81;;;19.52;45.06
78073;BME280;67281;48.770;11.440;2023-05-20T05:32:25;97235.28;;;19.51;44.84
78073;BME280;67281;48.770;11.440;2023-05-20T05:34:52;97236.97;;;19.52;44.58
78073;BME280;67281;48.770;11.440;2023-05-20T05:37:19;97230.47;;;19.55;44.71
78073;BME280;67281;48.770;11.440;2023-05-20T05:39:47;97232.97;;;19.56;44.57
78073;BME280;67281;48.770;11.440;2023-05-20T05:42:19;97228.50;;;19.57;45.17
78073;BME280;67281;48.770;11.440;2023-05-20T05:44:47;97222.34;;;19.56;44.52
78073;BME280;67281;48.770;11.440;2023-05-20T05:47:15;97229.16;;;19.59;44.96
78073;BME280;67281;48.770;11.440;2023-05-20T05:49:42;97221.19;;;19.59;44.88
78073;BME280;67281;48.770;11.440;2023-05-20T05:52:16;97224.69;;;19.59;44.95
78073;BME280;67281;48.770;11.440;2023-05-20T05:54:44;97227.16;;;19.61;44.75
78073;BME280;67281;48.770;11.440;2023-05-20T05:57:12;97222.69;;;19.61;44.91
78073;BME280;67281;48.770;11.440;2023-05-20T05:59:39;97212.72;;;19.63;45.15
78073;BME280;67281;48.770;11.440;2023-05-20T06:02:06;97207.56;;;19.62;44.95
78073;BME280;67281;48.770;11.440;2023-05-20T06:04:39;97214.38;;;19.64;44.47
78073;BME280;67281;48.770;11.440;2023-05-20T06:07:17;97207.41;;;19.63;45.30
78073;BME280;67281;48.770;11.440;2023-05-20T06:09:46;97206.25;;;19.66;44.99
78073;BME280;67281;48.770;11.440;2023-05-20T06:12:13;97205.41;;;19.65;45.01
78073;BME280;67281;48.770;11.440;2023-05-20T06:14:40;97205.41;;;19.65;44.74
78073;BME280;67281;48.770;11.440;2023-05-20T06:17:17;97204.41;;;19.66;44.72
78073;BME280;67281;48.770;11.440;2023-05-20T06:19:48;97209.72;;;19.66;45.46
78073;BME280;67281;48.770;11.440;2023-05-20T06:22:15;97209.56;;;19.68;44.94
78073;BME280;67281;48.770;11.440;2023-05-20T06:24:42;97199.75;;;19.68;44.59
78073;BME280;67281;48.770;11.440;2023-05-20T06:27:09;97207.41;;;19.72;44.82
78073;BME280;67281;48.770;11.440;2023-05-20T06:29:36;97210.22;;;19.70;45.17
78073;BME280;67281;48.770;11.440;2023-05-20T06:32:06;97203.91;;;19.71;44.86
78073;BME280;67281;48.770;11.440;2023-05-20T06:34:33;97216.22;;;19.72;45.19
78073;BME280;67281;48.770;11.440;2023-05-20T06:37:00;97207.41;;;19.72;44.81
78073;BME280;67281;48.770;11.440;2023-05-20T06:39:28;97204.59;;;19.73;44.91
78073;BME280;67281;48.770;11.440;2023-05-20T06:41:55;97209.75;;;19.75;45.20
78073;BME280;67281;48.770;11.440;2023-05-20T06:44:23;97209.75;;;19.75;45.17
78073;BME280;67281;48.770;11.440;2023-05-20T06:46:50;97209.56;;;19.76;45.55
78073;BME280;67281;48.770;11.440;2023-05-20T06:49:17;97207.75;;;19.77;45.64
78073;BME280;67281;48.770;11.440;2023-05-20T06:51:45;97210.25;;;19.78;45.00
78073;BME280;67281;48.770;11.440;2023-05-20T06:54:15;97207.41;;;19.80;45.32
78073;BME280;67281;48.770;11.440;2023-05-20T06:56:50;97203.09;;;19.79;45.30
78073;BME280;67281;48.770;11.440;2023-05-20T06:59:18;97206.41;;;19.81;45.51
78073;BME280;67281;48.770;11.440;2023-05-20T07:01:45;97208.06;;;19.82;45.21
78073;BME280;67281;48.770;11.440;2023-05-20T07:04:12;97206.91;;;19.84;45.27
78073;BME280;67281;48.770;11.440;2023-05-20T07:06:39;97209.25;;;19.87;45.19
78073;BME280;67281;48.770;11.440;2023-05-20T07:09:09;97206.41;;;19.89;44.95
78073;BME280;67281;48.770;11.440;2023-05-20T07:11:45;97189.63;;;19.88;45.66
78073;BME280;67281;48.770;11.440;2023-05-20T07:14:18;97190.28;;;19.90;44.95
78073;BME280;67281;48.770;11.440;2023-05-20T07:16:55;97186.81;;;19.90;44.96
78073;BME280;67281;48.770;11.440;2023-05-20T07:19:22;97183.81;;;19.93;44.91
78073;BME280;67281;48.770;11.440;2023-05-20T07:21:49;97179.97;;;19.95;44.79
78073;BME280;67281;48.770;11.440;2023-05-20T07:24:18;97184.31;;;19.96;44.93
78073;BME280;67281;48.770;11.440;2023-05-20T07:26:51;97180.66;;;19.97;45.25
78073;BME280;67281;48.770;11.440;2023-05-20T07:29:20;97177.66;;;20.00;44.79
78073;BME280;67281;48.770;11.440;2023-05-20T07:31:46;97172.16;;;20.02;44.86
78073;BME280;67281;48.770;11.440;2023-05-20T07:34:13;97163.03;;;20.05;45.17
78073;BME280;67281;48.770;11.440;2023-05-20T07:36:40;97169.97;;;20.06;45.18
78073;BME280;67281;48.770;11.440;2023-05-20T07:39:08;97177.78;;;20.07;44.85
78073;BME280;67281;48.770;11.440;2023-05-20T07:41:40;97180.28;;;20.09;45.43
78073;BME280;67281;48.770;11.440;2023-05-20T07:44:07;97175.63;;;20.11;45.56
78073;BME280;67281;48.770;11.440;2023-05-20T07:46:34;97173.78;;;20.11;45.64
78073;BME280;67281;48.770;11.440;2023-05-20T07:49:13;97171.78;;;20.13;44.97
78073;BME280;67281;48.770;11.440;2023-05-20T07:52:23;97170.78;;;20.14;45.38
78073;BME280;67281;48.770;11.440;2023-05-20T07:54:52;97170.78;;;20.14;45.15
78073;BME280;67281;48.770;11.440;2023-05-20T07:57:24;97167.78;;;20.17;45.23
78073;BME280;67281;48.770;11.440;2023-05-20T07:59:53;97170.13;;;20.20;45.57
78073;BME280;67281;48.770;11.440;2023-05-20T08:02:20;97174.09;;;20.24;45.50
78073;BME280;67281;48.770;11.440;2023-05-20T08:04:47;97174.75;;;20.26;45.30
78073;BME280;67281;48.770;11.440;2023-05-20T08:07:17;97176.41;;;20.27;45.57
78073;BME280;67281;48.770;11.440;2023-05-20T08:09:43;97164.59;;;20.30;44.92
78073;BME280;67281;48.770;11.440;2023-05-20T08:12:14;97164.44;;;20.31;44.99
78073;BME280;67281;48.770;11.440;2023-05-20T08:14:52;97166.94;;;20.33;45.15
78073;BME280;67281;48.770;11.440;2023-05-20T08:17:21;97157.13;;;20.33;45.43
78073;BME280;67281;48.770;11.440;2023-05-20T08:19:48;97168.59;;;20.34;45.58
78073;BME280;67281;48.770;11.440;2023-05-20T08:22:15;97160.44;;;20.35;45.25
78073;BME280;67281;48.770;11.440;2023-05-20T08:24:43;97161.09;;;20.38;45.45
78073;BME280;67281;48.770;11.440;2023-05-20T08:27:13;97163.75;;;20.38;45.28
78073;BME280;67281;48.770;11.440;2023-05-20T08:29:40;97158.44;;;20.38;45.88
78073;BME280;67281;48.770;11.440;2023-05-20T08:32:07;97154.81;;;20.39;45.27
78073;BME280;67281;48.770;11.440;2023-05-20T08:34:34;97158.28;;;20.39;44.95
78073;BME280;67281;48.770;11.440;2023-05-20T08:37:04;97151.31;;;20.38;45.19
78073;BME280;67281;48.770;11.440;2023-05-20T08:39:31;97159.78;;;20.42;45.53
78073;BME280;67281;48.770;11.440;2023-05-20T08:41:58;97154.13;;;20.45;45.59
78073;BME280;67281;48.770;11.440;2023-05-20T08:44:29;97159.94;;;20.48;44.97
78073;BME280;67281;48.770;11.440;2023-05-20T08:47:02;97152.59;;;20.50;45.62
78073;BME280;67281;48.770;11.440;2023-05-20T08:49:30;97149.78;;;20.52;45.33
78073;BME280;67281;48.770;11.440;2023-05-20T08:51:59;97139.94;;;20.52;45.34
78073;BME280;67281;48.770;11.440;2023-05-20T08:54:44;97147.78;;;20.54;45.90
78073;BME280;67281;48.770;11.440;2023-05-20T08:57:14;97147.78;;;20.54;45.29
78073;BME280;67281;48.770;11.440;2023-05-20T08:59:45;97144.09;;;20.55;45.52
78073;BME280;67281;48.770;11.440;2023-05-20T09:02:15;97142.09;;;20.57;45.58
78073;BME280;67281;48.770;11.440;2023-05-20T09:04:42;97140.25;;;20.57;45.20
78073;BME280;67281;48.770;11.440;2023-05-20T09:07:09;97139.75;;;20.62;45.40
78073;BME280;67281;48.770;11.440;2023-05-20T09:09:36;97134.25;;;20.63;44.85
78073;BME280;67281;48.770;11.440;2023-05-20T09:12:05;97143.91;;;20.64;45.68
78073;BME280;67281;48.770;11.440;2023-05-20T09:14:32;97150.88;;;20.65;44.96
78073;BME280;67281;48.770;11.440;2023-05-20T09:16:59;97139.06;;;20.68;45.02
78073;BME280;67281;48.770;11.440;2023-05-20T09:19:26;97134.22;;;20.72;44.74
78073;BME280;67281;48.770;11.440;2023-05-20T09:21:54;97130.38;;;20.74;45.11
78073;BME280;67281;48.770;11.440;2023-05-20T09:24:24;97143.69;;;20.74;45.13
78073;BME280;67281;48.770;11.440;2023-05-20T09:26:53;97133.88;;;20.75;44.76
78073;BME280;67281;48.770;11.440;2023-05-20T09:29:20;97136.72;;;20.73;45.01
78073;BME280;67281;48.770;11.440;2023-05-20T09:31:48;97128.38;;;20.76;44.73
78073;BME280;67281;48.770;11.440;2023-05-20T09:34:16;97129.03;;;20.78;44.65
78073;BME280;67281;48.770;11.440;2023-05-20T09:36:43;97137.63;;;20.80;45.40
78073;BME280;67281;48.770;11.440;2023-05-20T09:39:15;97140.97;;;20.82;44.63
78073;BME280;67281;48.770;11.440;2023-05-20T09:42:01;97137.94;;;20.85;44.95
78073;BME280;67281;48.770;11.440;2023-05-20T09:44:32;97137.44;;;20.90;45.01
78073;BME280;67281;48.770;11.440;2023-05-20T09:47:00;97136.91;;;20.94;44.82
78073;BME280;67281;48.770;11.440;2023-05-20T09:49:27;97131.22;;;20.97;45.07
78073;BME280;67281;48.770;11.440;2023-05-20T09:51:55;97134.53;;;20.99;45.04
78073;BME280;67281;48.770;11.440;2023-05-20T09:54:25;97124.72;;;21.00;44.80
78073;BME280;67281;48.770;11.440;2023-05-20T09:56:57;97126.19;;;21.03;44.64
78073;BME280;67281;48.770;11.440;2023-05-20T09:59:28;97121.53;;;21.05;45.01
78073;BME280;67281;48.770;11.440;2023-05-20T10:01:57;97118.50;;;21.08;44.39
78073;BME280;67281;48.770;11.440;2023-05-20T10:04:25;97111.16;;;21.10;44.12
78073;BME280;67281;48.770;11.440;2023-05-20T10:12:41;97108.16;;;21.13;44.78
78073;BME280;67281;48.770;11.440;2023-05-20T10:20:30;97103.13;;;21.18;44.67
78073;BME280;67281;48.770;11.440;2023-05-20T10:22:58;97102.78;;;21.21;44.83
78073;BME280;67281;48.770;11.440;2023-05-20T10:25:28;97097.13;;;21.24;44.60
78073;BME280;67281;48.770;11.440;2023-05-20T10:28:09;97101.25;;;21.26;44.92
78073;BME280;67281;48.770;11.440;2023-05-20T10:30:37;97085.94;;;21.28;44.45
78073;BME280;67281;48.770;11.440;2023-05-20T10:33:06;97092.75;;;21.31;44.33
78073;BME280;67281;48.770;11.440;2023-05-20T10:35:34;97091.72;;;21.32;44.73
78073;BME280;67281;48.770;11.440;2023-05-20T10:38:10;97081.06;;;21.32;44.69
78073;BME280;67281;48.770;11.440;2023-05-20T10:40:40;97084.38;;;21.34;44.36
78073;BME280;67281;48.770;11.440;2023-05-20T10:43:11;97081.53;;;21.36;44.73
78073;BME280;67281;48.770;11.440;2023-05-20T10:45:49;97078.34;;;21.40;44.77
78073;BME280;67281;48.770;11.440;2023-05-20T10:48:28;97071.00;;;21.42;44.83
78073;BME280;67281;48.770;11.440;2023-05-20T10:50:57;97072.81;;;21.42;44.79
78073;BME280;67281;48.770;11.440;2023-05-20T10:53:26;97071.00;;;21.42;44.09
78073;BME280;67281;48.770;11.440;2023-05-20T10:56:00;97068.97;;;21.44;44.57
78073;BME280;67281;48.770;11.440;2023-05-20T10:58:27;97067.44;;;21.50;44.60
78073;BME280;67281;48.770;11.440;2023-05-20T11:01:05;97070.81;;;21.58;44.24
78073;BME280;67281;48.770;11.440;2023-05-20T11:03:34;97061.25;;;21.64;44.19
78073;BME280;67281;48.770;11.440;2023-05-20T11:06:01;97063.38;;;21.69;44.12
78073;BME280;67281;48.770;11.440;2023-05-20T11:08:34;97056.69;;;21.73;43.65
78073;BME280;67281;48.770;11.440;2023-05-20T11:11:03;97050.81;;;21.77;44.23
78073;BME280;67281;48.770;11.440;2023-05-20T11:13:32;97052.47;;;21.78;43.65
78073;BME280;67281;48.770;11.440;2023-05-20T11:16:00;97053.75;;;21.82;43.92
78073;BME280;67281;48.770;11.440;2023-05-20T11:18:27;97044.56;;;21.85;44.08
78073;BME280;67281;48.770;11.440;2023-05-20T11:21:03;97051.00;;;21.90;43.72
78073;BME280;67281;48.770;11.440;2023-05-20T11:23:41;97048.63;;;21.95;43.90
78073;BME280;67281;48.770;11.440;2023-05-20T11:26:08;97044.09;;;21.96;44.17
78073;BME280;67281;48.770;11.440;2023-05-20T11:28:36;97041.63;;;21.94;44.15
78073;BME280;67281;48.770;11.440;2023-05-20T11:31:04;97043.19;;;21.89;44.76
78073;BME280;67281;48.770;11.440;2023-05-20T11:33:32;97045.19;;;21.87;44.32
78073;BME280;67281;48.770;11.440;2023-05-20T11:36:18;97043.91;;;21.83;44.67
78073;BME280;67281;48.770;11.440;2023-05-20T11:39:32;97037.09;;;21.80;44.32
78073;BME280;67281;48.770;11.440;2023-05-20T11:42:02;97041.44;;;21.81;44.51
78073;BME280;67281;48.770;11.440;2023-05-20T11:44:29;97030.94;;;21.80;44.60
78073;BME280;67281;48.770;11.440;2023-05-20T11:47:00;97037.75;;;21.82;44.88
78073;BME280;67281;48.770;11.440;2023-05-20T11:49:28;97032.22;;;21.84;44.33
78073;BME280;67281;48.770;11.440;2023-05-20T11:52:03;97036.56;;;21.85;44.40
78073;BME280;67281;48.770;11.440;2023-05-20T11:54:35;97034.53;;;21.87;44.57
78073;BME280;67281;48.770;11.440;2023-05-20T11:57:02;97021.84;;;21.89;44.71
78073;BME280;67281;48.770;11.440;2023-05-20T11:59:33;97023.31;;;21.91;44.80
78073;BME280;67281;48.770;11.440;2023-05-20T12:02:03;97033.63;;;21.94;44.40
78073;BME280;67281;48.770;11.440;2023-05-20T12:04:31;97021.56;;;21.98;44.31
78073;BME280;67281;48.770;11.440;2023-05-20T12:06:58;97029.03;;;22.03;44.41
78073;BME280;67281;48.770;11.440;2023-05-20T12:09:29;97033.38;;;22.04;44.15
78073;BME280;67281;48.770;11.440;2023-05-20T12:11:58;97031.25;;;22.14;44.08
78073;BME280;67281;48.770;11.440;2023-05-20T12:14:25;97032.16;;;22.21;43.92
78073;BME280;67281;48.770;11.440;2023-05-20T12:16:53;97029.78;;;22.26;44.23
78073;BME280;67281;48.770;11.440;2023-05-20T12:19:25;97026.50;;;22.31;43.82
78073;BME280;67281;48.770;11.440;2023-05-20T12:22:29;97028.34;;;22.30;43.71
78073;BME280;67281;48.770;11.440;2023-05-20T12:24:56;97029.38;;;22.29;44.12
78073;BME280;67281;48.770;11.440;2023-05-20T12:27:23;97020.34;;;22.30;43.88
78073;BME280;67281;48.770;11.440;2023-05-20T12:29:55;97022.91;;;22.39;44.24
78073;BME280;67281;48.770;11.440;2023-05-20T12:32:30;97020.31;;;22.45;44.21
78073;BME280;67281;48.770;11.440;2023-05-20T12:34:59;97024.53;;;22.54;43.97
78073;BME280;67281;48.770;11.440;2023-05-20T12:37:26;97021.03;;;22.54;43.35
78073;BME280;67281;48.770;11.440;2023-05-20T12:39:53;97018.94;;;22.49;43.67
78073;BME280;67281;48.770;11.440;2023-05-20T12:42:19;97015.78;;;22.60;43.24
78073;BME280;67281;48.770;11.440;2023-05-20T12:44:46;97023.50;;;22.70;43.12
78073;BME280;67281;48.770;11.440;2023-05-20T12:47:14;97027.06;;;22.77;43.07
78073;BME280;67281;48.770;11.440;2023-05-20T12:49:47;97021.38;;;22.80;43.65
78073;BME280;67281;48.770;11.440;2023-05-20T12:52:22;97015.66;;;22.83;42.84
78073;BME280;67281;48.770;11.440;2023-05-20T12:54:55;97021.44;;;22.87;43.03
78073;BME280;67281;48.770;11.440;2023-05-20T12:57:22;97021.69;;;22.92;43.19
78073;BME280;67281;48.770;11.440;2023-05-20T12:59:53;97019.28;;;22.97;43.33
78073;BME280;67281;48.770;11.440;2023-05-20T13:02:22;97009.66;;;23.03;42.75
78073;BME280;67281;48.770;11.440;2023-05-20T13:04:49;97008.78;;;22.96;43.15
78073;BME280;67281;48.770;11.440;2023-05-20T13:07:16;97014.69;;;22.91;43.18
78073;BME280;67281;48.770;11.440;2023-05-20T13:09:50;97014.06;;;22.89;43.88
78073;BME280;67281;48.770;11.440;2023-05-20T13:12:18;97011.84;;;22.92;43.21